Time;durP1;ratioP1;P1;durP2;ratioP2;P2;SDS_P1;SDS_P2;PMS_P1;PMS_P2;Temp;Humidity;BMP_temperature;BMP_pressure;BME280_temperature;BME280_humidity;BME280_pressure;Samples;Min_cycle;Max_cycle;Signal;HPM_P1;HPM_P2
2022/09/20 00:02:30;;;;;;;4.68;2.15;;;16.70;99.90;;;;;;5032691;28;20396;-68
2022/09/20 00:05:43;;;;;;;4.43;2.15;;;16.70;99.90;;;;;;5031808;28;20048;-68
2022/09/20 00:09:05;;;;;;;2.55;1.92;;;16.60;99.90;;;;;;5032562;28;20496;-68
2022/09/20 00:12:28;;;;;;;4.10;2.13;;;16.60;99.90;;;;;;5032238;28;20045;-69
2022/09/20 00:15:32;;;;;;;6.95;2.30;;;16.50;99.90;;;;;;5032325;28;20044;-68
2022/09/20 00:18:37;;;;;;;3.72;1.77;;;16.40;99.90;;;;;;5032579;28;20773;-68
2022/09/20 00:22:18;;;;;;;3.00;1.90;;;16.40;99.90;;;;;;5031714;28;20044;-69
2022/09/20 00:25:22;;;;;;;4.97;2.28;;;16.30;99.90;;;;;;5031931;28;20504;-69
2022/09/20 00:28:28;;;;;;;3.70;1.90;;;16.30;99.90;;;;;;5031844;28;20045;-68
2022/09/20 00:31:32;;;;;;;6.93;2.22;;;16.20;99.90;;;;;;5031331;28;20040;-69
2022/09/20 00:37:58;;;;;;;5.22;1.85;;;16.10;99.90;;;;;;5032335;28;20036;-68
2022/09/20 00:41:21;;;;;;;;;;;16.00;99.90;;;;;;5032634;28;20059;-68
2022/09/20 00:45:00;;;;;;;3.78;1.63;;;16.00;99.90;;;;;;5031796;28;19920;-69
2022/09/20 00:48:20;;;;;;;4.93;1.65;;;15.90;99.90;;;;;;5031880;28;20044;-69
2022/09/20 00:51:31;;;;;;;2.78;1.55;;;15.80;99.90;;;;;;5031634;28;20037;-68
2022/09/20 00:54:55;;;;;;;4.78;1.55;;;15.80;99.90;;;;;;5031285;28;20044;-67
2022/09/20 00:57:59;;;;;;;8.00;1.75;;;15.70;99.90;;;;;;5031552;28;20480;-68
2022/09/20 01:01:22;;;;;;;4.35;1.55;;;15.70;99.90;;;;;;5031437;28;20052;-69
2022/09/20 01:04:28;;;;;;;5.85;1.90;;;15.60;99.90;;;;;;5031398;28;20048;-68
2022/09/20 01:08:10;;;;;;;3.92;1.50;;;15.60;99.90;;;;;;5030970;28;20499;-68
2022/09/20 01:11:13;;;;;;;7.25;1.27;;;15.50;99.90;;;;;;5030760;28;20041;-68
2022/09/20 01:14:36;;;;;;;1.63;1.10;;;15.50;99.90;;;;;;5030868;28;20467;-68
2022/09/20 01:17:46;;;;;;;5.68;1.45;;;15.30;99.90;;;;;;5030740;28;20045;-69
2022/09/20 01:21:10;;;;;;;1.90;0.98;;;15.20;99.90;;;;;;5031388;28;20060;-68
2022/09/20 01:24:38;;;;;;;2.83;1.30;;;15.20;99.90;;;;;;5030555;28;20136;-68
2022/09/20 01:27:51;;;;;;;5.00;1.30;;;15.30;99.90;;;;;;5030821;28;20040;-68
2022/09/20 01:34:45;;;;;;;4.03;2.10;;;15.10;99.90;;;;;;5030760;28;20041;-68
2022/09/20 01:38:21;;;;;;;5.10;1.70;;;15.10;99.90;;;;;;5029857;28;20052;-68
2022/09/20 01:41:35;;;;;;;6.80;1.85;;;15.10;99.90;;;;;;5030614;28;20056;-68
2022/09/20 01:45:10;;;;;;;3.92;1.80;;;15.00;99.90;;;;;;5029669;28;20052;-68
2022/09/20 01:48:57;;;;;;;2.78;1.30;;;14.80;99.90;;;;;;5031042;28;20044;-68
2022/09/20 01:52:38;;;;;;;4.30;1.52;;;14.80;99.90;;;;;;5030008;28;20044;-68
2022/09/20 01:59:40;;;;;;;2.10;1.20;;;14.80;99.90;;;;;;5030558;28;20049;-67
2022/09/20 02:07:05;;;;;;;3.08;1.40;;;14.60;99.90;;;;;;5030305;28;20045;-67
2022/09/20 02:10:27;;;;;;;3.28;1.65;;;14.60;99.90;;;;;;5030876;28;20053;-68
2022/09/20 02:14:26;;;;;;;3.17;1.60;;;14.70;99.90;;;;;;5030486;28;20424;-67
2022/09/20 02:18:16;;;;;;;6.72;2.22;;;14.80;99.90;;;;;;5030524;28;20397;-67
2022/09/20 02:21:39;;;;;;;5.67;2.57;;;14.70;99.90;;;;;;5030595;28;20404;-67
2022/09/20 02:25:15;;;;;;;7.53;2.20;;;14.80;99.90;;;;;;5030502;28;20275;-67
2022/09/20 02:28:48;;;;;;;4.57;2.50;;;14.50;99.90;;;;;;5030694;28;20044;-67
2022/09/20 02:32:17;;;;;;;8.80;1.92;;;14.40;99.90;;;;;;5034730;28;20661;-67
2022/09/20 02:35:58;;;;;;;5.07;1.30;;;14.30;99.90;;;;;;5034165;28;20040;-67
2022/09/20 02:43:46;;;;;;;3.40;1.58;;;14.20;99.90;;;;;;5034545;28;20053;-68
2022/09/20 02:47:21;;;;;;;2.65;1.55;;;13.90;99.90;;;;;;5034250;28;20048;-67
2022/09/20 02:50:53;;;;;;;6.07;2.33;;;13.90;99.90;;;;;;5034022;28;20045;-68
2022/09/20 02:54:36;;;;;;;6.00;2.73;;;13.90;99.90;;;;;;5033518;28;20056;-67
2022/09/20 02:57:51;;;;;;;4.72;1.80;;;13.70;99.90;;;;;;5033859;28;20052;-67
2022/09/20 03:05:13;;;;;;;4.50;1.88;;;13.60;99.90;;;;;;5032237;28;20045;-67
2022/09/20 03:08:20;;;;;;;4.22;1.90;;;13.70;99.90;;;;;;5033526;28;20053;-67
2022/09/20 03:16:44;;;;;;;2.47;1.65;;;13.70;99.90;;;;;;5033694;28;20392;-67
2022/09/20 03:19:54;;;;;;;5.47;1.70;;;13.70;99.90;;;;;;5033779;28;20073;-69
2022/09/20 03:23:19;;;;;;;4.43;2.10;;;13.60;99.90;;;;;;5033631;28;20053;-68
2022/09/20 03:27:04;;;;;;;5.75;2.33;;;13.40;99.90;;;;;;5033224;28;20499;-68
2022/09/20 03:30:53;;;;;;;3.50;2.10;;;13.30;99.90;;;;;;5033259;28;20052;-69
2022/09/20 03:38:06;;;;;;;4.70;2.20;;;13.40;99.90;;;;;;5031563;28;20496;-69
2022/09/20 03:41:12;;;;;;;6.07;2.63;;;13.50;99.90;;;;;;5033155;28;20032;-68
2022/09/20 03:48:38;;;;;;;7.38;2.45;;;13.50;99.90;;;;;;5033010;28;20044;-68
2022/09/20 03:52:24;;;;;;;5.72;2.20;;;13.60;99.90;;;;;;5033359;28;20416;-68
2022/09/20 03:56:05;;;;;;;5.57;2.50;;;13.40;99.90;;;;;;5032982;28;20428;-69
2022/09/20 03:59:16;;;;;;;5.82;2.67;;;13.30;99.90;;;;;;5032496;28;20044;-69
2022/09/20 04:06:47;;;;;;;5.30;2.72;;;12.90;99.90;;;;;;5032752;28;20040;-68
2022/09/20 04:10:33;;;;;;;6.82;2.63;;;12.80;99.90;;;;;;5032426;28;20041;-69
2022/09/20 04:13:58;;;;;;;4.68;2.40;;;12.70;99.90;;;;;;5032241;28;20052;-69
2022/09/20 04:17:37;;;;;;;4.00;2.30;;;12.60;99.90;;;;;;5032633;28;20036;-68
2022/09/20 04:20:49;;;;;;;7.28;2.40;;;12.50;99.90;;;;;;5032692;28;20041;-68
2022/09/20 04:24:20;;;;;;;6.13;2.25;;;12.40;99.90;;;;;;5032270;28;20208;-68
2022/09/20 04:27:30;;;;;;;4.75;2.40;;;12.30;99.90;;;;;;5032646;28;20052;-68
2022/09/20 04:30:42;;;;;;;7.13;2.60;;;12.30;99.90;;;;;;5032465;28;20060;-68
2022/09/20 04:36:27;;;;;;;5.45;3.00;;;12.20;99.90;;;;;;5031760;28;20041;-68
2022/09/20 04:37:53;;;;;;;5.63;2.67;;;12.10;99.90;;;;;;5031557;28;20052;-68
2022/09/20 04:41:16;;;;;;;3.85;2.75;;;12.10;99.90;;;;;;5032147;28;20116;-68
2022/09/20 04:44:57;;;;;;;6.28;2.70;;;12.10;99.90;;;;;;5032016;28;20416;-68
2022/09/20 04:48:01;;;;;;;8.27;2.95;;;12.20;99.90;;;;;;5032331;28;20373;-68
2022/09/20 04:51:42;;;;;;;7.40;2.50;;;12.30;99.90;;;;;;5031503;28;20495;-68
2022/09/20 04:55:29;;;;;;;6.57;2.50;;;12.30;99.90;;;;;;5029280;28;20059;-68
2022/09/20 04:59:06;;;;;;;10.90;3.80;;;12.30;99.90;;;;;;5030876;28;20122;-68
2022/09/20 05:02:30;;;;;;;4.75;3.13;;;12.40;99.90;;;;;;5030989;28;20065;-68
2022/09/20 05:06:22;;;;;;;8.60;2.95;;;12.20;99.90;;;;;;5030483;28;20052;-68
2022/09/20 05:09:46;;;;;;;6.00;3.30;;;12.20;99.90;;;;;;5030007;28;20040;-68
2022/09/20 05:13:10;;;;;;;12.02;3.58;;;12.20;99.90;;;;;;5030640;28;20515;-68
2022/09/20 05:16:41;;;;;;;13.75;4.65;;;12.20;99.90;;;;;;5030817;28;20061;-68
2022/09/20 05:20:06;;;;;;;14.23;5.80;;;12.20;99.90;;;;;;5030184;28;20060;-68
2022/09/20 05:23:27;;;;;;;9.38;3.95;;;12.10;99.90;;;;;;5030221;28;20044;-68
2022/09/20 05:26:53;;;;;;;6.82;2.50;;;12.20;99.90;;;;;;5030664;28;20056;-67
2022/09/20 05:33:58;;;;;;;6.03;1.95;;;12.30;99.90;;;;;;5029546;28;20400;-68
2022/09/20 05:37:06;;;;;;;;;;;12.30;99.90;;;;;;5031304;28;20049;-68
2022/09/20 05:40:29;;;;;;;11.02;3.90;;;12.30;99.90;;;;;;5030618;28;19920;-67
2022/09/20 05:43:57;;;;;;;8.27;3.67;;;12.40;99.90;;;;;;5029677;28;20129;-68
2022/09/20 05:47:42;;;;;;;8.38;2.85;;;13.90;99.90;;;;;;5031099;28;20381;-67
2022/09/20 05:55:08;;;;;;;5.07;1.45;;;18.00;99.90;;;;;;5028101;28;20044;-68
2022/09/20 05:59:10;;;;;;;4.53;1.88;;;20.40;99.90;;;;;;5023638;28;20037;-67
2022/09/20 06:03:04;;;;;;;12.82;2.95;;;22.50;99.90;;;;;;5027666;28;20044;-68
2022/09/20 06:13:31;;;;;;;10.02;2.25;;;28.00;94.20;;;;;;5032925;28;20032;-68
2022/09/20 06:17:18;;;;;;;4.43;2.30;;;26.10;93.40;;;;;;5033389;28;20045;-69
2022/09/20 06:20:49;;;;;;;7.03;2.75;;;27.00;94.10;;;;;;5028543;28;20040;-68
2022/09/20 06:24:23;;;;;;;6.07;2.33;;;27.70;92.90;;;;;;5029476;28;20042;-68
2022/09/20 06:27:38;;;;;;;8.88;2.10;;;27.90;92.40;;;;;;5033049;28;20036;-68
2022/09/20 06:31:19;;;;;;;3.75;1.67;;;28.60;91.80;;;;;;5032732;28;20041;-69
2022/09/20 06:34:23;;;;;;;3.63;2.20;;;27.70;92.10;;;;;;5022133;28;20496;-68
2022/09/20 06:41:33;;;;;;;7.15;1.80;;;28.30;91.70;;;;;;5027605;28;20040;-68
2022/09/20 06:44:59;;;;;;;3.95;1.83;;;27.70;90.70;;;;;;5015427;28;20040;-69
2022/09/20 06:48:23;;;;;;;4.65;1.95;;;28.10;91.20;;;;;;5030658;28;20044;-69
2022/09/20 06:51:34;;;;;;;2.08;1.40;;;26.70;91.80;;;;;;5022966;28;20099;-66
2022/09/20 06:54:37;;;;;;;3.85;1.70;;;26.80;91.10;;;;;;5024843;28;20045;-68
2022/09/20 06:57:42;;;;;;;2.85;1.80;;;27.00;91.70;;;;;;5028092;28;20057;-68
2022/09/20 07:00:47;;;;;;;4.25;2.47;;;27.40;91.90;;;;;;5032642;28;20060;-68
2022/09/20 07:03:50;;;;;;;5.78;2.53;;;27.50;91.70;;;;;;5029325;28;20045;-69
2022/09/20 07:07:02;;;;;;;6.53;2.85;;;27.90;90.90;;;;;;5026779;28;20470;-69
2022/09/20 07:10:09;;;;;;;9.77;3.67;;;27.60;91.00;;;;;;5030489;28;20479;-68
2022/09/20 07:13:13;;;;;;;7.13;3.40;;;27.60;87.80;;;;;;5028462;28;20060;-68
2022/09/20 07:19:40;;;;;;;4.93;3.00;;;28.20;85.00;;;;;;5031740;28;20052;-68
2022/09/20 07:22:44;;;;;;;5.18;3.28;;;28.00;85.90;;;;;;5030785;28;20061;-68
2022/09/20 07:25:49;;;;;;;6.22;3.10;;;28.60;85.10;;;;;;5027762;28;20417;-69
2022/09/20 07:29:12;;;;;;;11.90;4.80;;;29.60;83.30;;;;;;5031360;28;20041;-69
2022/09/20 07:32:16;;;;;;;10.75;4.93;;;30.30;79.00;;;;;;5028202;28;20404;-69
2022/09/20 07:35:21;;;;;;;4.22;2.85;;;30.70;77.20;;;;;;5022856;28;20041;-69
2022/09/20 07:38:25;;;;;;;6.55;3.78;;;31.10;73.00;;;;;;5028867;28;20606;-69
2022/09/20 07:41:30;;;;;;;6.55;4.20;;;31.60;73.50;;;;;;5023873;28;20041;-69
2022/09/20 07:44:35;;;;;;;5.72;3.08;;;32.20;73.60;;;;;;5031379;28;20040;-68
2022/09/20 07:47:40;;;;;;;7.40;3.85;;;31.00;72.50;;;;;;5031667;28;20040;-69
2022/09/20 07:51:01;;;;;;;7.35;3.55;;;31.80;72.30;;;;;;5027373;28;20037;-68
2022/09/20 07:54:05;;;;;;;7.18;4.53;;;31.70;72.40;;;;;;5028401;28;20048;-68
2022/09/20 07:57:47;;;;;;;8.43;4.05;;;31.40;71.90;;;;;;5024060;28;20396;-68
2022/09/20 08:00:56;;;;;;;6.35;3.70;;;30.10;74.40;;;;;;5025242;28;20500;-69
2022/09/20 08:04:38;;;;;;;7.00;3.53;;;31.60;73.10;;;;;;5028099;28;20036;-68
2022/09/20 08:07:41;;;;;;;5.28;2.70;;;29.00;72.20;;;;;;5025519;28;20157;-68
2022/09/20 08:10:48;;;;;;;3.72;2.35;;;29.30;70.90;;;;;;5027582;28;20048;-69
2022/09/20 08:14:30;;;;;;;3.35;2.13;;;28.10;70.20;;;;;;5027343;28;20040;-68
2022/09/20 08:17:33;;;;;;;5.72;3.00;;;30.10;71.10;;;;;;5029216;28;20048;-68
2022/09/20 08:20:38;;;;;;;4.38;3.13;;;32.10;70.20;;;;;;5030249;28;20048;-68
2022/09/20 08:23:46;;;;;;;5.80;2.90;;;33.80;69.10;;;;;;5023729;28;20044;-69
2022/09/20 08:26:50;;;;;;;5.75;2.92;;;33.20;67.30;;;;;;5025772;28;21051;-68
2022/09/20 08:33:37;;;;;;;6.25;3.17;;;31.90;68.50;;;;;;5025699;28;20044;-68
2022/09/20 08:37:00;;;;;;;7.13;3.33;;;31.60;68.60;;;;;;5023833;28;20401;-68
2022/09/20 08:40:04;;;;;;;5.43;3.25;;;29.00;70.30;;;;;;5026527;28;20037;-68
2022/09/20 08:43:10;;;;;;;6.18;3.50;;;30.80;70.50;;;;;;5029144;28;20036;-68
2022/09/20 08:50:18;;;;;;;4.10;2.80;;;33.10;67.80;;;;;;5030289;28;20057;-69
2022/09/20 08:53:23;;;;;;;6.85;3.20;;;34.30;66.00;;;;;;5029787;28;20359;-68
2022/09/20 09:00:20;;;;;;;4.88;2.80;;;34.30;66.10;;;;;;5025009;28;20048;-68
2022/09/20 09:03:27;;;;;;;5.38;3.20;;;36.50;65.30;;;;;;5027550;28;20048;-68
2022/09/20 09:06:31;;;;;;;4.85;2.90;;;35.70;64.80;;;;;;5028190;28;20044;-68
2022/09/20 09:09:55;;;;;;;6.15;3.50;;;34.50;63.90;;;;;;5025390;28;20048;-68
2022/09/20 09:13:00;;;;;;;2.83;2.17;;;36.90;64.10;;;;;;5027668;28;20045;-68
2022/09/20 09:16:31;;;;;;;5.80;2.47;;;33.60;64.20;;;;;;5027455;28;20396;-69
2022/09/20 09:19:50;;;;;;;2.42;1.70;;;35.80;64.10;;;;;;5025480;28;20040;-68
2022/09/20 09:23:10;;;;;;;3.15;1.90;;;32.90;64.40;;;;;;5027143;28;20057;-68
2022/09/20 09:26:20;;;;;;;2.70;1.80;;;35.60;64.40;;;;;;5027955;28;20044;-68
2022/09/20 09:29:25;;;;;;;2.17;1.67;;;36.60;63.00;;;;;;5031057;28;20049;-68
2022/09/20 09:36:02;;;;;;;3.85;2.00;;;36.00;61.80;;;;;;5027599;28;20404;-67
2022/09/20 09:43:13;;;;;;;3.63;1.45;;;41.40;58.70;;;;;;5026739;28;20056;-68
2022/09/20 09:46:22;;;;;;;3.38;1.52;;;42.50;55.50;;;;;;5028922;28;20052;-68
2022/09/20 09:49:34;;;;;;;4.18;2.72;;;43.40;54.80;;;;;;5021662;28;20575;-66
2022/09/20 09:52:38;;;;;;;2.58;1.75;;;44.40;53.30;;;;;;5024032;28;20401;-66
2022/09/20 09:55:58;;;;;;;2.45;1.40;;;44.40;52.40;;;;;;5026387;28;20056;-67
2022/09/20 09:59:20;;;;;;;2.33;1.42;;;45.10;51.40;;;;;;5023610;28;20416;-66
2022/09/20 10:02:29;;;;;;;4.18;1.60;;;46.50;50.00;;;;;;5028045;28;20044;-66
2022/09/20 10:05:42;;;;;;;3.13;1.40;;;41.20;49.80;;;;;;5025934;28;20029;-68
2022/09/20 10:09:40;;;;;;;2.88;1.38;;;43.30;51.20;;;;;;5022590;28;20044;-68
2022/09/20 10:16:42;;;;;;;6.40;1.38;;;45.10;49.50;;;;;;5026036;28;20483;-69
2022/09/20 10:20:32;;;;;;;3.10;1.10;;;45.40;48.90;;;;;;5027533;28;20040;-66
2022/09/20 10:24:13;;;;;;;1.77;0.98;;;44.80;48.90;;;;;;5027895;28;20048;-69
2022/09/20 10:27:43;;;;;;;3.63;1.10;;;45.30;48.90;;;;;;5035170;28;21003;-68
2022/09/20 10:38:22;;;;;;;1.20;0.80;;;43.90;47.60;;;;;;5025930;28;20056;-69
2022/09/20 10:45:48;;;;;;;10.73;2.05;;;44.70;45.80;;;;;;5027085;28;20044;-68
2022/09/20 10:49:33;;;;;;;3.58;0.93;;;38.80;50.20;;;;;;5028380;28;20056;-69
2022/09/20 10:52:43;;;;;;;6.65;1.88;;;41.50;48.80;;;;;;5027082;28;20049;-68
2022/09/20 10:56:15;;;;;;;5.05;1.35;;;37.60;52.20;;;;;;5031239;28;20040;-69
2022/09/20 10:59:50;;;;;;;4.05;1.27;;;40.20;51.80;;;;;;5012229;28;20056;-69
2022/09/20 11:03:42;;;;;;;2.75;1.20;;;41.80;51.60;;;;;;5023415;28;20052;-66
2022/09/20 11:07:16;;;;;;;1.42;0.90;;;42.90;51.00;;;;;;5003579;28;20057;-66
2022/09/20 11:10:41;;;;;;;1.75;0.98;;;44.00;50.50;;;;;;5032132;28;20262;-66
2022/09/20 11:14:30;;;;;;;4.53;1.23;;;44.20;48.80;;;;;;5029821;28;20384;-67
2022/09/20 11:17:38;;;;;;;;;;;44.70;49.00;;;;;;5032570;28;20052;-67
2022/09/20 11:21:06;;;;;;;2.47;1.20;;;45.30;49.40;;;;;;5026414;28;19917;-67
2022/09/20 11:24:39;;;;;;;2.08;1.05;;;45.10;48.80;;;;;;5024411;28;20060;-69
2022/09/20 11:31:41;;;;;;;1.35;0.98;;;43.70;48.20;;;;;;5025957;28;20045;-69
2022/09/20 11:35:38;;;;;;;2.95;1.17;;;44.20;48.80;;;;;;5029921;28;20049;-67
2022/09/20 11:38:48;;;;;;;;;;;45.40;47.80;;;;;;5029909;28;20045;-66
2022/09/20 11:49:33;;;;;;;3.40;1.38;;;40.80;47.30;;;;;;5028605;28;20507;-68
2022/09/20 11:53:28;;;;;;;3.15;1.10;;;42.30;47.90;;;;;;5029490;28;20388;-69
2022/09/20 11:56:34;;;;;;;2.38;1.20;;;43.20;48.20;;;;;;5031076;28;20044;-69
2022/09/20 12:00:02;;;;;;;2.08;1.20;;;41.20;48.20;;;;;;5026004;28;20041;-68
2022/09/20 12:03:36;;;;;;;3.55;1.50;;;36.70;50.70;;;;;;5029034;28;20048;-69
2022/09/20 12:07:23;;;;;;;3.60;1.20;;;38.10;50.80;;;;;;5028918;28;20052;-69
2022/09/20 12:10:55;;;;;;;1.60;0.90;;;40.60;49.00;;;;;;5029535;28;20412;-67
2022/09/20 12:14:17;;;;;;;1.38;0.98;;;42.70;47.80;;;;;;5028331;28;20385;-67
2022/09/20 12:18:11;;;;;;;1.52;1.00;;;43.90;46.80;;;;;;5030852;28;20648;-69
2022/09/20 12:29:00;;;;;;;2.67;1.10;;;45.20;46.30;;;;;;5024578;28;20045;-69
2022/09/20 12:32:51;;;;;;;2.55;1.02;;;44.50;46.30;;;;;;5038393;28;20384;-68
2022/09/20 12:36:11;;;;;;;1.85;1.23;;;44.40;46.00;;;;;;5023571;28;20065;-69
2022/09/20 12:39:35;;;;;;;5.13;1.30;;;41.20;46.80;;;;;;5024901;28;20040;-68
2022/09/20 12:42:58;;;;;;;1.30;0.82;;;41.50;47.40;;;;;;5029816;28;20514;-69
2022/09/20 12:46:02;;;;;;;2.35;1.23;;;38.20;47.20;;;;;;5017688;28;20048;-68
2022/09/20 12:52:56;;;;;;;1.77;1.00;;;39.60;47.40;;;;;;5028116;28;20049;-68
2022/09/20 12:56:26;;;;;;;2.00;1.10;;;41.00;47.50;;;;;;5025152;28;20040;-69
2022/09/20 12:59:32;;;;;;;2.65;1.38;;;42.30;47.50;;;;;;5028153;28;20369;-69
2022/09/20 13:02:51;;;;;;;4.28;1.02;;;42.80;47.20;;;;;;5030290;28;20063;-70
2022/09/20 13:06:04;;;;;;;;;;;43.00;48.10;;;;;;5027510;28;20040;-66
2022/09/20 13:09:27;;;;;;;4.00;0.95;;;43.60;46.90;;;;;;5028207;28;19924;-67
2022/09/20 13:12:36;;;;;;;3.15;1.10;;;44.10;45.50;;;;;;5026742;28;20049;-68
2022/09/20 13:15:51;;;;;;;2.53;1.10;;;43.90;46.60;;;;;;5028590;28;20041;-69
2022/09/20 13:19:37;;;;;;;2.78;1.00;;;42.80;46.50;;;;;;5024741;28;20511;-69
2022/09/20 13:22:44;;;;;;;1.67;1.02;;;42.40;47.50;;;;;;5004075;28;20189;-69
2022/09/20 13:25:49;;;;;;;3.42;1.38;;;42.20;46.70;;;;;;5026856;28;20041;-68
2022/09/20 13:29:39;;;;;;;1.45;0.98;;;42.90;46.10;;;;;;5028466;28;20048;-70
2022/09/20 13:32:44;;;;;;;2.03;1.05;;;43.50;46.10;;;;;;5025193;28;20045;-69
2022/09/20 13:36:08;;;;;;;2.88;1.08;;;43.70;46.40;;;;;;5023391;28;20056;-69
2022/09/20 13:39:34;;;;;;;1.63;1.05;;;43.30;44.90;;;;;;5029624;28;20129;-68
2022/09/20 13:42:38;;;;;;;2.85;1.10;;;42.00;45.00;;;;;;5025649;28;20053;-68
2022/09/20 13:46:12;;;;;;;3.08;1.00;;;41.30;46.50;;;;;;5026257;28;20401;-69
2022/09/20 13:49:22;;;;;;;2.03;0.93;;;40.90;46.30;;;;;;5027309;28;20044;-69
2022/09/20 13:52:30;;;;;;;1.77;1.10;;;39.30;45.70;;;;;;5015503;28;20037;-69
2022/09/20 13:55:37;;;;;;;1.23;0.95;;;39.70;46.30;;;;;;5026505;28;20045;-69
2022/09/20 14:02:25;;;;;;;3.40;1.02;;;40.20;46.10;;;;;;5010688;28;20504;-69
2022/09/20 14:05:30;;;;;;;3.22;0.95;;;40.20;46.90;;;;;;5024644;28;20516;-68
2022/09/20 14:08:43;;;;;;;1.50;0.90;;;40.90;46.40;;;;;;5010198;28;20045;-69
2022/09/20 14:11:47;;;;;;;2.38;0.82;;;40.50;46.20;;;;;;5009946;28;20052;-69
2022/09/20 14:14:52;;;;;;;1.10;0.80;;;40.60;45.40;;;;;;5010016;28;20045;-69
2022/09/20 14:18:17;;;;;;;4.43;1.10;;;40.40;46.00;;;;;;5013169;28;20242;-68
2022/09/20 14:21:24;;;;;;;1.45;0.98;;;39.50;45.50;;;;;;5029133;28;20056;-68
2022/09/20 14:24:36;;;;;;;4.18;0.88;;;38.60;45.20;;;;;;5029704;28;20075;-69
2022/09/20 14:28:24;;;;;;;3.70;1.13;;;38.00;46.40;;;;;;5034254;28;20056;-68
2022/09/20 14:31:32;;;;;;;1.70;0.85;;;37.00;47.50;;;;;;5033288;28;20052;-68
2022/09/20 14:34:38;;;;;;;1.50;0.98;;;36.00;48.20;;;;;;5027433;28;20424;-68
2022/09/20 14:37:46;;;;;;;6.18;0.93;;;35.70;49.00;;;;;;5029705;28;20044;-68
2022/09/20 14:40:51;;;;;;;1.70;1.20;;;35.50;49.00;;;;;;5030177;28;20726;-68
2022/09/20 14:44:01;;;;;;;1.67;1.00;;;35.10;48.70;;;;;;5013898;28;20037;-67
2022/09/20 14:47:15;;;;;;;6.95;1.30;;;34.40;49.80;;;;;;5032636;28;20048;-67
2022/09/20 14:50:29;;;;;;;3.45;1.05;;;33.50;50.20;;;;;;5024909;28;20080;-68
2022/09/20 14:53:52;;;;;;;1.60;0.90;;;32.40;51.50;;;;;;5026675;28;20048;-68
2022/09/20 14:56:57;;;;;;;3.38;1.40;;;31.60;51.30;;;;;;5028133;28;20057;-69
2022/09/20 15:00:20;;;;;;;3.10;1.17;;;31.00;51.70;;;;;;5033483;28;20037;-69
2022/09/20 15:03:43;;;;;;;2.08;1.30;;;30.50;52.70;;;;;;5027527;28;20048;-68
2022/09/20 15:14:10;;;;;;;3.53;1.33;;;29.40;52.30;;;;;;5013811;28;20354;-68
2022/09/20 15:17:52;;;;;;;2.30;1.10;;;29.50;54.10;;;;;;5028272;28;20044;-68
2022/09/20 15:20:57;;;;;;;3.58;1.23;;;29.40;53.60;;;;;;5029177;28;20060;-69
2022/09/20 15:24:01;;;;;;;2.65;1.20;;;29.10;53.40;;;;;;5028845;28;20068;-68
2022/09/20 15:27:07;;;;;;;2.85;1.08;;;28.80;53.70;;;;;;5031810;28;20036;-68
2022/09/20 15:33:37;;;;;;;2.22;1.25;;;28.90;54.80;;;;;;5030012;28;20044;-68
2022/09/20 15:36:42;;;;;;;2.90;0.73;;;28.70;54.60;;;;;;5032789;28;20044;-68
2022/09/20 15:40:07;;;;;;;1.52;0.80;;;28.60;55.20;;;;;;5029759;28;20053;-68
2022/09/20 15:47:00;;;;;;;2.83;1.00;;;28.20;55.70;;;;;;5032470;28;20056;-68
2022/09/20 15:50:23;;;;;;;1.40;1.00;;;28.10;56.40;;;;;;5026017;28;20057;-70
2022/09/20 15:53:33;;;;;;;3.42;0.80;;;28.10;56.50;;;;;;5025608;28;20040;-69
2022/09/20 15:56:55;;;;;;;2.33;0.80;;;27.90;57.30;;;;;;5026171;28;20500;-69
2022/09/20 16:03:28;;;;;;;2.47;1.23;;;27.40;57.70;;;;;;5023828;28;20053;-68
2022/09/20 16:06:33;;;;;;;2.20;1.02;;;27.20;58.50;;;;;;5030918;28;20037;-69
2022/09/20 16:09:38;;;;;;;3.08;1.20;;;27.00;58.50;;;;;;5018973;28;20064;-69
2022/09/20 16:13:00;;;;;;;2.10;0.93;;;26.90;59.00;;;;;;5030989;28;20044;-69
2022/09/20 16:16:06;;;;;;;2.30;1.05;;;26.70;59.90;;;;;;5029802;28;20404;-69
2022/09/20 16:19:16;;;;;;;1.75;0.90;;;26.40;59.80;;;;;;5026535;28;20490;-69
2022/09/20 16:22:21;;;;;;;2.88;1.00;;;26.10;60.10;;;;;;5031247;28;20380;-68
2022/09/20 16:25:25;;;;;;;4.28;1.05;;;26.00;60.60;;;;;;5031143;28;20040;-69
2022/09/20 16:28:48;;;;;;;1.42;1.00;;;25.90;61.70;;;;;;5031462;28;20041;-69
2022/09/20 16:31:53;;;;;;;2.45;1.23;;;25.70;62.00;;;;;;5023248;28;20053;-68
2022/09/20 16:35:00;;;;;;;1.55;0.80;;;25.50;62.60;;;;;;5029539;28;20522;-69
2022/09/20 16:38:04;;;;;;;4.05;1.88;;;25.20;63.20;;;;;;5032011;28;20531;-69
2022/09/20 16:41:08;;;;;;;3.53;1.50;;;24.90;63.40;;;;;;5031504;28;20048;-69
2022/09/20 16:51:39;;;;;;;6.03;1.00;;;24.30;65.90;;;;;;5030761;28;20558;-69
2022/09/20 16:55:03;;;;;;;7.88;1.30;;;23.80;66.20;;;;;;5031241;28;20052;-69
2022/09/20 16:58:26;;;;;;;2.60;0.98;;;23.20;67.30;;;;;;5029903;28;20036;-68
2022/09/20 17:01:30;;;;;;;2.65;1.13;;;22.90;67.90;;;;;;5031045;28;20371;-68
2022/09/20 17:04:35;;;;;;;3.10;1.10;;;22.80;67.50;;;;;;5030224;28;20049;-69
2022/09/20 17:07:57;;;;;;;4.93;1.30;;;22.60;67.60;;;;;;5030737;28;20044;-69
2022/09/20 17:11:01;;;;;;;2.70;1.05;;;22.50;68.00;;;;;;5029723;28;20036;-68
2022/09/20 17:14:43;;;;;;;2.00;1.00;;;22.50;68.90;;;;;;5030168;28;20400;-69
2022/09/20 17:18:08;;;;;;;3.03;1.23;;;22.30;68.60;;;;;;5030619;28;20045;-68
2022/09/20 17:21:49;;;;;;;2.83;1.35;;;22.10;69.40;;;;;;5031054;28;20056;-69
2022/09/20 17:28:15;;;;;;;6.47;1.40;;;21.60;71.80;;;;;;5030692;28;20076;-68
2022/09/20 17:31:22;;;;;;;3.75;1.75;;;21.40;72.80;;;;;;5030022;28;20048;-69
2022/09/20 17:34:45;;;;;;;3.35;1.17;;;21.20;73.40;;;;;;5030243;28;20048;-69
2022/09/20 17:48:35;;;;;;;4.70;1.30;;;20.90;76.00;;;;;;5030434;28;20040;-69
2022/09/20 17:51:43;;;;;;;5.93;1.45;;;20.80;76.40;;;;;;5029918;28;20523;-69
2022/09/20 17:55:07;;;;;;;2.88;1.60;;;20.80;76.60;;;;;;5029789;28;20526;-68
2022/09/20 17:58:11;;;;;;;3.58;1.10;;;20.80;76.20;;;;;;5030485;28;20049;-69
2022/09/20 18:01:19;;;;;;;2.28;1.20;;;20.80;77.50;;;;;;5030187;28;20076;-68
2022/09/20 18:04:23;;;;;;;4.50;1.42;;;20.80;76.40;;;;;;5029659;28;20048;-68
2022/09/20 18:07:28;;;;;;;5.40;1.63;;;20.80;76.90;;;;;;5029997;28;20495;-68
2022/09/20 18:10:55;;;;;;;4.78;1.70;;;20.70;78.50;;;;;;5029645;28;20052;-68
2022/09/20 18:14:24;;;;;;;4.00;1.40;;;20.50;78.20;;;;;;5029512;28;20053;-68
2022/09/20 18:17:29;;;;;;;4.72;1.13;;;20.40;79.20;;;;;;5029188;28;20044;-68
2022/09/20 18:20:32;;;;;;;3.80;1.33;;;20.40;79.40;;;;;;5029706;28;20060;-68
2022/09/20 18:23:36;;;;;;;2.40;1.10;;;20.30;80.00;;;;;;5029170;28;20044;-68
2022/09/20 18:30:23;;;;;;;2.75;1.35;;;20.20;80.80;;;;;;5029339;28;20056;-68
2022/09/20 18:33:30;;;;;;;2.15;1.15;;;20.00;81.10;;;;;;5029033;28;20457;-68
2022/09/20 18:36:54;;;;;;;2.92;1.23;;;19.90;81.60;;;;;;5028675;28;20072;-68
2022/09/20 18:40:16;;;;;;;3.38;1.10;;;20.00;81.40;;;;;;5029560;28;20053;-67
2022/09/20 18:43:20;;;;;;;2.55;1.20;;;19.90;81.80;;;;;;5028985;28;20049;-69
2022/09/20 18:46:28;;;;;;;2.72;1.30;;;19.90;82.50;;;;;;5028921;28;20520;-69
2022/09/20 18:49:51;;;;;;;3.65;1.35;;;19.70;82.90;;;;;;5029448;28;20503;-69
2022/09/20 18:52:57;;;;;;;12.85;1.88;;;19.70;83.30;;;;;;5028878;28;20428;-68
2022/09/20 18:56:25;;;;;;;4.43;1.30;;;19.60;82.80;;;;;;5029697;28;20056;-69
2022/09/20 18:59:29;;;;;;;2.15;1.38;;;19.60;83.30;;;;;;5029599;28;20060;-69
2022/09/20 19:03:10;;;;;;;6.03;1.42;;;19.60;83.70;;;;;;5028606;28;20044;-68
2022/09/20 19:06:18;;;;;;;2.80;1.45;;;19.60;83.70;;;;;;5028713;28;20048;-68
2022/09/20 19:09:45;;;;;;;3.17;1.80;;;19.50;84.60;;;;;;5029592;28;20506;-69
2022/09/20 19:13:00;;;;;;;3.13;1.50;;;19.40;84.60;;;;;;5031835;28;20045;-69
2022/09/20 19:16:31;;;;;;;3.72;1.55;;;19.30;85.60;;;;;;5032698;28;20046;-68
2022/09/20 19:19:52;;;;;;;3.58;1.60;;;19.20;86.10;;;;;;5033726;28;20048;-68
2022/09/20 19:23:00;;;;;;;6.63;2.85;;;19.20;86.60;;;;;;5032074;28;20044;-68
2022/09/20 19:26:23;;;;;;;5.05;1.90;;;19.10;87.00;;;;;;5032687;28;20381;-68
2022/09/20 19:29:47;;;;;;;3.55;1.42;;;19.00;87.70;;;;;;5032891;28;20043;-69
2022/09/20 19:33:17;;;;;;;8.05;1.60;;;18.90;88.50;;;;;;5032664;28;20264;-70
2022/09/20 19:36:43;;;;;;;4.03;1.13;;;18.90;89.40;;;;;;5032685;28;20052;-68
2022/09/20 19:48:11;;;;;;;4.70;1.98;;;18.60;90.50;;;;;;5032434;28;20060;-69
2022/09/20 19:51:15;;;;;;;4.68;1.55;;;18.50;91.10;;;;;;5032067;28;20040;-69
2022/09/20 19:54:39;;;;;;;6.43;1.60;;;18.40;91.20;;;;;;5031432;28;20044;-69
2022/09/20 20:01:25;;;;;;;4.35;1.65;;;18.30;91.50;;;;;;5020053;28;20044;-69
2022/09/20 20:04:29;;;;;;;9.43;1.90;;;18.20;91.70;;;;;;5031329;28;20060;-68
2022/09/20 20:08:21;;;;;;;3.35;1.50;;;18.20;92.10;;;;;;5032058;28;20052;-69
2022/09/20 20:12:08;;;;;;;6.53;2.45;;;18.10;92.40;;;;;;5032076;28;20044;-68
2022/09/20 20:15:15;;;;;;;10.45;1.70;;;18.10;92.60;;;;;;5030895;28;20040;-69
2022/09/20 20:18:39;;;;;;;5.32;1.90;;;18.00;93.20;;;;;;5031014;28;20049;-69